TimeCST,TemperatureF,Dew PointF,Humidity,Sea Level PressureIn,VisibilityMPH,Wind Direction,Wind SpeedMPH,Gust SpeedMPH,PrecipitationIn,Events,Conditions,WindDirDegrees,DateUTC
12:15 AM,28.4,26.6,93,30.35,10.0,SE,3.5,-,N/A,,Clear,140,2013-02-02 06:15:00
12:35 AM,28.4,26.6,93,30.34,10.0,SE,3.5,-,N/A,,Clear,130,2013-02-02 06:35:00
12:55 AM,30.2,28.4,93,30.34,10.0,SE,5.8,-,N/A,,Clear,130,2013-02-02 06:55:00
1:15 AM,30.2,26.6,86,30.33,10.0,SSE,3.5,-,N/A,,Clear,150,2013-02-02 07:15:00
1:55 AM,30.2,28.4,93,30.33,10.0,SE,3.5,-,N/A,,Clear,140,2013-02-02 07:55:00
2:15 AM,30.2,26.6,86,30.34,10.0,Calm,Calm,-,N/A,,Clear,0,2013-02-02 08:15:00
2:35 AM,28.4,24.8,86,30.34,10.0,NNE,3.5,-,N/A,,Clear,20,2013-02-02 08:35:00
2:55 AM,26.6,24.8,93,30.33,10.0,Calm,Calm,-,N/A,,Clear,0,2013-02-02 08:55:00
3:15 AM,26.6,26.6,100,30.32,10.0,SE,3.5,-,N/A,,Clear,140,2013-02-02 09:15:00
3:35 AM,28.4,26.6,93,30.31,10.0,Calm,Calm,-,N/A,,Clear,0,2013-02-02 09:35:00
3:55 AM,28.4,26.6,93,30.31,10.0,Calm,Calm,-,N/A,,Clear,0,2013-02-02 09:55:00
4:15 AM,28.4,26.6,93,30.30,10.0,SSE,4.6,-,N/A,,Clear,150,2013-02-02 10:15:00
4:35 AM,28.4,26.6,93,30.29,9.0,SSE,5.8,-,N/A,,Clear,160,2013-02-02 10:35:00
4:55 AM,30.2,26.6,86,30.28,10.0,SSE,4.6,-,N/A,,Clear,160,2013-02-02 10:55:00
5:15 AM,30.2,28.4,93,30.28,9.0,South,5.8,-,N/A,,Clear,170,2013-02-02 11:15:00
5:35 AM,32.0,28.4,87,30.27,10.0,South,8.1,-,N/A,,Partly Cloudy,170,2013-02-02 11:35:00
6:15 AM,32.0,30.2,93,30.28,10.0,South,4.6,-,N/A,,Mostly Cloudy,180,2013-02-02 12:15:00
6:35 AM,32.0,30.2,93,30.28,10.0,South,5.8,-,N/A,,Scattered Clouds,170,2013-02-02 12:35:00
6:55 AM,32.0,30.2,93,30.28,10.0,South,5.8,-,N/A,,Clear,170,2013-02-02 12:55:00
7:15 AM,32.0,30.2,93,30.28,9.0,South,5.8,-,N/A,,Clear,170,2013-02-02 13:15:00
7:35 AM,33.8,30.2,87,30.29,9.0,South,4.6,-,N/A,,Scattered Clouds,180,2013-02-02 13:35:00
7:55 AM,35.6,32.0,87,30.30,9.0,South,4.6,-,N/A,,Mostly Cloudy,190,2013-02-02 13:55:00
8:15 AM,35.6,32.0,87,30.31,9.0,Calm,Calm,-,N/A,,Scattered Clouds,0,2013-02-02 14:15:00
8:35 AM,37.4,32.0,81,30.31,9.0,SSW,3.5,-,N/A,,Mostly Cloudy,200,2013-02-02 14:35:00
8:55 AM,37.4,32.0,81,30.31,10.0,South,3.5,-,N/A,,Scattered Clouds,170,2013-02-02 14:55:00
9:15 AM,39.2,33.8,81,30.30,9.0,South,4.6,-,N/A,,Scattered Clouds,180,2013-02-02 15:15:00
9:35 AM,41.0,35.6,81,30.30,9.0,South,5.8,-,N/A,,Partly Cloudy,170,2013-02-02 15:35:00
9:55 AM,42.8,35.6,76,30.28,9.0,South,6.9,-,N/A,,Partly Cloudy,180,2013-02-02 15:55:00
10:15 AM,44.6,37.4,76,30.28,9.0,South,6.9,-,N/A,,Partly Cloudy,180,2013-02-02 16:15:00
10:35 AM,44.6,37.4,76,30.27,10.0,South,6.9,-,N/A,,Partly Cloudy,180,2013-02-02 16:35:00
10:55 AM,46.4,39.2,76,30.27,10.0,SSW,3.5,-,N/A,,Scattered Clouds,200,2013-02-02 16:55:00
11:15 AM,44.6,39.2,81,30.25,7.0,WSW,5.8,-,N/A,,Light Drizzle,240,2013-02-02 17:15:00
11:35 AM,48.2,41.0,76,30.24,8.0,South,3.5,-,N/A,,Partly Cloudy,190,2013-02-02 17:35:00
11:55 AM,48.2,42.8,82,30.22,9.0,Calm,Calm,-,N/A,,Scattered Clouds,0,2013-02-02 17:55:00
12:15 PM,50.0,42.8,76,30.20,9.0,SSE,4.6,-,N/A,,Scattered Clouds,160,2013-02-02 18:15:00
12:35 PM,57.2,50.0,77,30.18,9.0,SSW,9.2,-,N/A,,Partly Cloudy,200,2013-02-02 18:35:00
12:55 PM,59.0,50.0,72,30.16,9.0,SW,9.2,-,N/A,,Partly Cloudy,220,2013-02-02 18:55:00
1:15 PM,55.4,48.2,77,30.16,9.0,SSW,6.9,-,N/A,,Mostly Cloudy,210,2013-02-02 19:15:00
1:35 PM,55.4,46.4,72,30.15,10.0,Calm,Calm,-,N/A,,Overcast,0,2013-02-02 19:35:00
1:55 PM,55.4,46.4,72,30.15,8.0,North,5.8,-,N/A,,Light Drizzle,350,2013-02-02 19:55:00
2:15 PM,48.2,42.8,82,30.18,2.5,North,9.2,-,N/A,,Light Drizzle,360,2013-02-02 20:15:00
2:35 PM,44.6,41.0,87,30.18,2.5,North,5.8,-,0.02,Rain,Light Rain,360,2013-02-02 20:35:00
3:15 PM,44.6,44.6,100,30.19,2.0,North,6.9,-,0.02,Rain,Light Rain,10,2013-02-02 21:15:00
3:35 PM,42.8,42.8,100,30.19,7.0,NNE,4.6,-,0.02,,Overcast,20,2013-02-02 21:35:00
4:15 PM,46.4,46.4,100,30.19,7.0,Calm,Calm,-,N/A,,Scattered Clouds,0,2013-02-02 22:15:00
4:35 PM,46.4,46.4,100,30.18,7.0,SW,4.6,-,N/A,,Clear,230,2013-02-02 22:35:00
4:55 PM,46.4,46.4,100,30.18,8.0,SW,4.6,-,N/A,,Clear,230,2013-02-02 22:55:00
5:15 PM,46.4,46.4,100,30.18,9.0,SW,5.8,-,N/A,,Clear,230,2013-02-02 23:15:00
5:55 PM,42.8,42.8,100,30.19,10.0,Calm,Calm,-,N/A,,Clear,0,2013-02-02 23:55:00
6:15 PM,39.2,39.2,100,30.19,1.2,Calm,Calm,-,N/A,,Clear,0,2013-02-03 00:15:00
6:35 PM,37.4,37.4,100,30.20,0.5,Calm,Calm,-,N/A,Fog,Fog,0,2013-02-03 00:35:00
6:55 PM,37.4,37.4,100,30.20,0.2,North,-9999.0,-,N/A,Fog,Fog,0,2013-02-03 00:55:00
7:35 PM,35.6,35.6,100,30.21,0.2,Calm,Calm,-,N/A,Fog,Fog,0,2013-02-03 01:35:00
7:55 PM,33.8,33.8,100,30.22,0.2,North,-9999.0,-,N/A,Fog,Fog,0,2013-02-03 01:55:00
8:15 PM,33.8,33.8,100,30.23,0.2,North,-9999.0,-,N/A,Fog,Fog,0,2013-02-03 02:15:00
8:35 PM,33.8,33.8,100,30.23,0.2,North,-9999.0,-,N/A,Fog,Fog,0,2013-02-03 02:35:00
8:55 PM,32.0,32.0,100,30.23,0.2,North,-9999.0,-,N/A,Fog,Fog,0,2013-02-03 02:55:00
9:15 PM,32.0,32.0,100,30.24,1.0,North,-9999.0,-,N/A,,Clear,0,2013-02-03 03:15:00
9:35 PM,32.0,32.0,100,30.23,2.0,Calm,Calm,-,N/A,,Clear,0,2013-02-03 03:35:00
9:55 PM,32.0,32.0,100,30.23,2.0,Calm,Calm,-,N/A,,Clear,0,2013-02-03 03:55:00
10:15 PM,32.0,32.0,100,30.23,5.0,Calm,Calm,-,N/A,,Clear,0,2013-02-03 04:15:00
10:35 PM,32.0,32.0,100,30.23,3.0,North,-9999.0,-,N/A,,Clear,0,2013-02-03 04:35:00
10:55 PM,32.0,32.0,100,30.23,2.5,North,-9999.0,-,N/A,,Clear,0,2013-02-03 04:55:00
11:15 PM,32.0,32.0,100,30.23,6.0,Calm,Calm,-,N/A,,Clear,0,2013-02-03 05:15:00
11:55 PM,-9999,-9999,N/A,30.23,3.0,Calm,Calm,-,N/A,,Clear,0,2013-02-03 05:55:00